sensor_id;sensor_type;location;lat;lon;timestamp;pressure;altitude;pressure_sealevel;temperature;humidity
78383;BME280;67668;52.294;4.692;2023-09-19T00:02:04;100700.28;;;17.16;65.95
78383;BME280;67668;52.294;4.692;2023-09-19T00:04:34;100698.16;;;17.11;63.80
78383;BME280;67668;52.294;4.692;2023-09-19T00:07:00;100709.25;;;17.08;64.70
78383;BME280;67668;52.294;4.692;2023-09-19T00:09:28;100712.94;;;17.07;65.44
78383;BME280;67668;52.294;4.692;2023-09-19T00:11:54;100717.47;;;17.07;64.87
78383;BME280;67668;52.294;4.692;2023-09-19T00:14:19;100715.34;;;17.02;63.78
78383;BME280;67668;52.294;4.692;2023-09-19T00:16:45;100710.00;;;17.02;63.94
78383;BME280;67668;52.294;4.692;2023-09-19T00:19:11;100720.69;;;17.02;65.56
78383;BME280;67668;52.294;4.692;2023-09-19T00:21:37;100723.53;;;17.00;65.21
78383;BME280;67668;52.294;4.692;2023-09-19T00:24:04;100707.50;;;17.00;64.84
78383;BME280;67668;52.294;4.692;2023-09-19T00:26:31;100721.44;;;16.96;63.04
78383;BME280;67668;52.294;4.692;2023-09-19T00:28:57;100719.78;;;16.95;65.64
78383;BME280;67668;52.294;4.692;2023-09-19T00:31:22;100725.13;;;16.95;64.78
78383;BME280;67668;52.294;4.692;2023-09-19T00:33:48;100739.03;;;16.90;63.72
78383;BME280;67668;52.294;4.692;2023-09-19T00:36:14;100730.38;;;16.88;64.29
78383;BME280;67668;52.294;4.692;2023-09-19T00:38:39;100737.94;;;16.85;63.48
78383;BME280;67668;52.294;4.692;2023-09-19T00:41:04;100739.78;;;16.84;65.72
78383;BME280;67668;52.294;4.692;2023-09-19T00:43:30;100738.50;;;16.80;64.58
78383;BME280;67668;52.294;4.692;2023-09-19T00:45:59;100740.34;;;16.80;65.09
78383;BME280;67668;52.294;4.692;2023-09-19T00:48:26;100740.72;;;16.77;64.79
78383;BME280;67668;52.294;4.692;2023-09-19T00:50:54;100735.38;;;16.77;65.37
78383;BME280;67668;52.294;4.692;2023-09-19T00:53:23;100735.53;;;16.75;64.66
78383;BME280;67668;52.294;4.692;2023-09-19T00:55:52;100734.72;;;16.75;65.35
78383;BME280;67668;52.294;4.692;2023-09-19T00:58:18;100732.88;;;16.75;65.60
78383;BME280;67668;52.294;4.692;2023-09-19T01:00:43;100735.53;;;16.75;65.56
78383;BME280;67668;52.294;4.692;2023-09-19T01:03:10;100734.25;;;16.71;64.70
78383;BME280;67668;52.294;4.692;2023-09-19T01:05:35;100740.44;;;16.72;65.39
78383;BME280;67668;52.294;4.692;2023-09-19T01:08:01;100735.28;;;16.70;65.58
78383;BME280;67668;52.294;4.692;2023-09-19T01:10:26;100735.28;;;16.70;66.44
78383;BME280;67668;52.294;4.692;2023-09-19T01:13:21;100736.28;;;16.69;66.38
78383;BME280;67668;52.294;4.692;2023-09-19T01:21:32;100744.56;;;16.60;63.52
78383;BME280;67668;52.294;4.692;2023-09-19T01:24:22;100738.56;;;16.58;64.64
78383;BME280;67668;52.294;4.692;2023-09-19T01:29:49;100748.63;;;16.56;65.79
78383;BME280;67668;52.294;4.692;2023-09-19T01:32:17;100760.28;;;16.54;65.66
78383;BME280;67668;52.294;4.692;2023-09-19T01:34:48;100754.09;;;16.54;65.96
78383;BME280;67668;52.294;4.692;2023-09-19T01:37:18;100748.75;;;16.54;66.59
78383;BME280;67668;52.294;4.692;2023-09-19T01:39:55;100740.09;;;16.52;65.50
78383;BME280;67668;52.294;4.692;2023-09-19T01:42:33;100750.78;;;16.52;66.29
78383;BME280;67668;52.294;4.692;2023-09-19T01:47:52;100746.44;;;16.51;66.77
78383;BME280;67668;52.294;4.692;2023-09-19T01:50:34;100739.09;;;16.53;67.49
78383;BME280;67668;52.294;4.692;2023-09-19T01:53:33;100751.63;;;16.52;67.04
78383;BME280;67668;52.294;4.692;2023-09-19T01:55:59;100749.13;;;16.51;66.99
78383;BME280;67668;52.294;4.692;2023-09-19T01:58:49;100743.78;;;16.51;67.71
78383;BME280;67668;52.294;4.692;2023-09-19T02:01:19;100740.47;;;16.49;67.22
78383;BME280;67668;52.294;4.692;2023-09-19T02:03:46;100745.81;;;16.49;67.52
78383;BME280;67668;52.294;4.692;2023-09-19T02:06:16;100747.84;;;16.47;66.11
78383;BME280;67668;52.294;4.692;2023-09-19T02:08:44;100756.03;;;16.45;66.30
78383;BME280;67668;52.294;4.692;2023-09-19T02:11:11;100754.19;;;16.46;66.89
78383;BME280;67668;52.294;4.692;2023-09-19T02:13:36;100750.22;;;16.42;66.04
78383;BME280;67668;52.294;4.692;2023-09-19T02:16:02;100761.09;;;16.40;64.53
78383;BME280;67668;52.294;4.692;2023-09-19T02:18:29;100769.13;;;16.40;65.05
78383;BME280;67668;52.294;4.692;2023-09-19T02:20:56;100755.75;;;16.40;64.33
78383;BME280;67668;52.294;4.692;2023-09-19T02:23:24;100755.94;;;16.39;64.71
78383;BME280;67668;52.294;4.692;2023-09-19T02:25:56;100764.59;;;16.41;65.68
78383;BME280;67668;52.294;4.692;2023-09-19T02:28:26;100770.28;;;16.38;65.71
78383;BME280;67668;52.294;4.692;2023-09-19T02:30:55;100772.78;;;16.39;66.32
78383;BME280;67668;52.294;4.692;2023-09-19T02:33:21;100769.13;;;16.40;66.72
78383;BME280;67668;52.294;4.692;2023-09-19T02:35:46;100771.97;;;16.39;66.37
78383;BME280;67668;52.294;4.692;2023-09-19T02:38:12;100764.94;;;16.38;66.68
78383;BME280;67668;52.294;4.692;2023-09-19T02:40:37;100758.78;;;16.37;66.74
78383;BME280;67668;52.294;4.692;2023-09-19T02:43:03;100767.44;;;16.39;67.56
78383;BME280;67668;52.294;4.692;2023-09-19T02:45:29;100767.44;;;16.39;67.62
78383;BME280;67668;52.294;4.692;2023-09-19T02:47:55;100753.09;;;16.40;67.82
78383;BME280;67668;52.294;4.692;2023-09-19T02:50:20;100753.25;;;16.39;68.27
78383;BME280;67668;52.294;4.692;2023-09-19T02:52:47;100758.44;;;16.40;68.75
78383;BME280;67668;52.294;4.692;2023-09-19T02:55:14;100753.25;;;16.39;68.54
78383;BME280;67668;52.294;4.692;2023-09-19T02:57:46;100742.75;;;16.37;68.15
78383;BME280;67668;52.294;4.692;2023-09-19T03:00:12;100746.91;;;16.40;68.05
78383;BME280;67668;52.294;4.692;2023-09-19T03:02:38;100746.91;;;16.40;67.72
78383;BME280;67668;52.294;4.692;2023-09-19T03:05:06;100747.91;;;16.39;67.38
78383;BME280;67668;52.294;4.692;2023-09-19T03:07:33;100750.59;;;16.39;67.04
78383;BME280;67668;52.294;4.692;2023-09-19T03:09:59;100753.63;;;16.36;65.91
78383;BME280;67668;52.294;4.692;2023-09-19T03:12:25;100756.28;;;16.36;65.60
78383;BME280;67668;52.294;4.692;2023-09-19T03:14:51;100739.25;;;16.37;66.42
78383;BME280;67668;52.294;4.692;2023-09-19T03:17:16;100753.44;;;16.37;67.08
78383;BME280;67668;52.294;4.692;2023-09-19T03:19:42;100755.28;;;16.37;66.67
78383;BME280;67668;52.294;4.692;2023-09-19T03:22:07;100749.94;;;16.37;66.92
78383;BME280;67668;52.294;4.692;2023-09-19T03:24:33;100751.78;;;16.36;67.91
78383;BME280;67668;52.294;4.692;2023-09-19T03:27:00;100746.25;;;16.38;68.02
78383;BME280;67668;52.294;4.692;2023-09-19T03:29:26;100746.25;;;16.38;67.91
78383;BME280;67668;52.294;4.692;2023-09-19T03:31:52;100752.63;;;16.37;67.68
78383;BME280;67668;52.294;4.692;2023-09-19T03:34:19;100752.78;;;16.35;66.41
78383;BME280;67668;52.294;4.692;2023-09-19T03:36:46;100765.31;;;16.35;66.21
78383;BME280;67668;52.294;4.692;2023-09-19T03:39:11;100765.31;;;16.35;66.37
78383;BME280;67668;52.294;4.692;2023-09-19T03:41:37;100772.69;;;16.33;65.23
78383;BME280;67668;52.294;4.692;2023-09-19T03:44:02;100769.19;;;16.32;64.86
78383;BME280;67668;52.294;4.692;2023-09-19T03:46:28;100774.06;;;16.29;64.64
78383;BME280;67668;52.294;4.692;2023-09-19T03:48:53;100771.91;;;16.24;64.43
78383;BME280;67668;52.294;4.692;2023-09-19T03:51:20;100766.41;;;16.26;64.97
78383;BME280;67668;52.294;4.692;2023-09-19T03:53:45;100764.72;;;16.25;65.13
78383;BME280;67668;52.294;4.692;2023-09-19T03:56:10;100772.09;;;16.23;63.30
78383;BME280;67668;52.294;4.692;2023-09-19T03:58:36;100779.13;;;16.24;64.46
78383;BME280;67668;52.294;4.692;2023-09-19T04:01:04;100787.28;;;16.22;63.91
78383;BME280;67668;52.294;4.692;2023-09-19T04:03:33;100787.47;;;16.21;63.74
78383;BME280;67668;52.294;4.692;2023-09-19T04:06:13;100782.31;;;16.19;63.93
78383;BME280;67668;52.294;4.692;2023-09-19T04:08:39;100789.69;;;16.17;62.54
78383;BME280;67668;52.294;4.692;2023-09-19T04:11:04;100791.53;;;16.17;63.70
78383;BME280;67668;52.294;4.692;2023-09-19T04:13:30;100778.16;;;16.17;63.38
78383;BME280;67668;52.294;4.692;2023-09-19T04:15:55;100785.16;;;16.18;64.88
78383;BME280;67668;52.294;4.692;2023-09-19T04:18:21;100791.53;;;16.17;65.12
78383;BME280;67668;52.294;4.692;2023-09-19T04:20:51;100794.19;;;16.17;64.71
78383;BME280;67668;52.294;4.692;2023-09-19T04:23:17;100806.50;;;16.18;65.58
78383;BME280;67668;52.294;4.692;2023-09-19T04:25:43;100811.03;;;16.17;66.06
78383;BME280;67668;52.294;4.692;2023-09-19T04:28:09;100800.38;;;16.17;65.30
78383;BME280;67668;52.294;4.692;2023-09-19T04:30:39;100799.53;;;16.17;65.56
78383;BME280;67668;52.294;4.692;2023-09-19T04:33:07;100793.16;;;16.18;65.88
78383;BME280;67668;52.294;4.692;2023-09-19T04:35:33;100806.50;;;16.18;66.68
78383;BME280;67668;52.294;4.692;2023-09-19T04:38:00;100798.50;;;16.18;67.36
78383;BME280;67668;52.294;4.692;2023-09-19T04:40:25;100792.53;;;16.16;67.55
78383;BME280;67668;52.294;4.692;2023-09-19T04:42:58;100806.88;;;16.15;67.58
78383;BME280;67668;52.294;4.692;2023-09-19T04:45:24;100809.53;;;16.15;68.20
78383;BME280;67668;52.294;4.692;2023-09-19T04:47:49;100809.38;;;16.16;68.96
78383;BME280;67668;52.294;4.692;2023-09-19T04:50:15;100817.19;;;16.18;69.05
78383;BME280;67668;52.294;4.692;2023-09-19T04:52:45;100807.34;;;16.18;69.19
78383;BME280;67668;52.294;4.692;2023-09-19T04:55:12;100807.34;;;16.18;69.24
78383;BME280;67668;52.294;4.692;2023-09-19T04:57:42;100811.84;;;16.18;69.28
78383;BME280;67668;52.294;4.692;2023-09-19T05:00:07;100805.50;;;16.19;70.00
78383;BME280;67668;52.294;4.692;2023-09-19T05:02:37;100815.19;;;16.20;69.97
78383;BME280;67668;52.294;4.692;2023-09-19T05:05:03;100813.34;;;16.20;70.03
78383;BME280;67668;52.294;4.692;2023-09-19T05:07:30;100800.00;;;16.20;69.92
78383;BME280;67668;52.294;4.692;2023-09-19T05:09:55;100804.50;;;16.20;70.68
78383;BME280;67668;52.294;4.692;2023-09-19T05:12:20;100803.47;;;16.21;70.89
78383;BME280;67668;52.294;4.692;2023-09-19T05:14:46;100809.50;;;16.23;70.99
78383;BME280;67668;52.294;4.692;2023-09-19T05:17:13;100802.47;;;16.22;70.71
78383;BME280;67668;52.294;4.692;2023-09-19T05:19:39;100803.47;;;16.21;70.45
78383;BME280;67668;52.294;4.692;2023-09-19T05:22:04;100797.34;;;16.20;70.36
78383;BME280;67668;52.294;4.692;2023-09-19T05:24:31;100805.34;;;16.20;70.26
78383;BME280;67668;52.294;4.692;2023-09-19T05:26:58;100801.84;;;16.20;69.56
78383;BME280;67668;52.294;4.692;2023-09-19T05:29:23;100800.81;;;16.21;69.79
78383;BME280;67668;52.294;4.692;2023-09-19T05:31:49;100810.50;;;16.22;70.03
78383;BME280;67668;52.294;4.692;2023-09-19T05:34:14;100813.16;;;16.22;69.50
78383;BME280;67668;52.294;4.692;2023-09-19T05:36:40;100813.16;;;16.22;69.34
78383;BME280;67668;52.294;4.692;2023-09-19T05:39:05;100814.00;;;16.22;69.38
78383;BME280;67668;52.294;4.692;2023-09-19T05:41:34;100815.00;;;16.21;68.67
78383;BME280;67668;52.294;4.692;2023-09-19T05:44:02;100807.00;;;16.21;69.00
78383;BME280;67668;52.294;4.692;2023-09-19T05:46:28;100810.69;;;16.20;68.45
78383;BME280;67668;52.294;4.692;2023-09-19T05:48:55;100816.84;;;16.21;68.79
78383;BME280;67668;52.294;4.692;2023-09-19T05:51:22;100820.53;;;16.20;69.19
78383;BME280;67668;52.294;4.692;2023-09-19T05:53:48;100820.19;;;16.23;69.38
78383;BME280;67668;52.294;4.692;2023-09-19T05:56:14;100825.53;;;16.23;68.90
78383;BME280;67668;52.294;4.692;2023-09-19T05:58:40;100812.53;;;16.20;66.88
78383;BME280;67668;52.294;4.692;2023-09-19T06:01:08;100815.19;;;16.20;68.20
78383;BME280;67668;52.294;4.692;2023-09-19T06:03:34;100809.00;;;16.19;68.28
78383;BME280;67668;52.294;4.692;2023-09-19T06:06:03;100814.34;;;16.19;67.89
78383;BME280;67668;52.294;4.692;2023-09-19T06:08:32;100820.91;;;16.17;66.27
78383;BME280;67668;52.294;4.692;2023-09-19T06:10:58;100819.88;;;16.18;67.75
78383;BME280;67668;52.294;4.692;2023-09-19T06:13:24;100817.19;;;16.18;67.85
78383;BME280;67668;52.294;4.692;2023-09-19T06:15:52;100822.53;;;16.18;68.08
78383;BME280;67668;52.294;4.692;2023-09-19T06:18:17;100815.34;;;16.18;68.23
78383;BME280;67668;52.294;4.692;2023-09-19T06:20:47;100821.53;;;16.19;67.74
78383;BME280;67668;52.294;4.692;2023-09-19T06:23:14;100817.19;;;16.18;67.58
78383;BME280;67668;52.294;4.692;2023-09-19T06:25:40;100830.19;;;16.21;68.08
78383;BME280;67668;52.294;4.692;2023-09-19T06:28:06;100827.50;;;16.21;67.54
78383;BME280;67668;52.294;4.692;2023-09-19T06:30:33;100829.19;;;16.22;68.44
78383;BME280;67668;52.294;4.692;2023-09-19T06:33:00;100830.84;;;16.23;68.93
78383;BME280;67668;52.294;4.692;2023-09-19T06:35:26;100840.53;;;16.24;68.57
78383;BME280;67668;52.294;4.692;2023-09-19T06:37:52;100836.19;;;16.23;68.11
78383;BME280;67668;52.294;4.692;2023-09-19T06:40:18;100827.19;;;16.24;68.26
78383;BME280;67668;52.294;4.692;2023-09-19T06:42:51;100833.53;;;16.23;66.12
78383;BME280;67668;52.294;4.692;2023-09-19T06:45:18;100839.50;;;16.25;67.18
78383;BME280;67668;52.294;4.692;2023-09-19T06:47:47;100840.34;;;16.25;67.47
78383;BME280;67668;52.294;4.692;2023-09-19T06:50:17;100836.47;;;16.28;67.26
78383;BME280;67668;52.294;4.692;2023-09-19T06:52:46;100841.00;;;16.27;66.91
78383;BME280;67668;52.294;4.692;2023-09-19T06:55:13;100823.97;;;16.28;67.13
78383;BME280;67668;52.294;4.692;2023-09-19T06:57:42;100839.81;;;16.30;66.67
78383;BME280;67668;52.294;4.692;2023-09-19T07:00:09;100849.47;;;16.31;67.21
78383;BME280;67668;52.294;4.692;2023-09-19T07:02:57;100847.63;;;16.31;66.80
78383;BME280;67668;52.294;4.692;2023-09-19T07:05:24;100854.66;;;16.32;66.80
78383;BME280;67668;52.294;4.692;2023-09-19T07:07:49;100856.13;;;16.35;66.21
78383;BME280;67668;52.294;4.692;2023-09-19T07:10:14;100852.47;;;16.36;66.89
78383;BME280;67668;52.294;4.692;2023-09-19T07:12:40;100850.63;;;16.36;67.30
78383;BME280;67668;52.294;4.692;2023-09-19T07:15:07;100853.78;;;16.40;67.36
78383;BME280;67668;52.294;4.692;2023-09-19T07:17:32;100848.06;;;16.43;66.67
78383;BME280;67668;52.294;4.692;2023-09-19T07:19:58;100852.22;;;16.45;67.36
78383;BME280;67668;52.294;4.692;2023-09-19T07:22:24;100844.66;;;16.49;67.57
78383;BME280;67668;52.294;4.692;2023-09-19T07:24:49;100847.16;;;16.50;67.53
78383;BME280;67668;52.294;4.692;2023-09-19T07:27:15;100849.47;;;16.53;67.74
78383;BME280;67668;52.294;4.692;2023-09-19T07:29:40;100858.00;;;16.57;67.43
78383;BME280;67668;52.294;4.692;2023-09-19T07:32:05;100860.13;;;16.62;67.60
78383;BME280;67668;52.294;4.692;2023-09-19T07:34:32;100859.59;;;16.66;66.62
78383;BME280;67668;52.294;4.692;2023-09-19T07:36:58;100865.22;;;16.71;66.43
78383;BME280;67668;52.294;4.692;2023-09-19T07:39:23;100863.84;;;16.75;66.84
78383;BME280;67668;52.294;4.692;2023-09-19T07:41:49;100859.81;;;16.79;65.01
78383;BME280;67668;52.294;4.692;2023-09-19T07:44:14;100860.06;;;16.84;66.35
78383;BME280;67668;52.294;4.692;2023-09-19T07:46:40;100864.06;;;16.88;66.07
78383;BME280;67668;52.294;4.692;2023-09-19T07:49:05;100864.34;;;16.93;65.68
78383;BME280;67668;52.294;4.692;2023-09-19T07:51:31;100859.28;;;16.98;65.78
78383;BME280;67668;52.294;4.692;2023-09-19T07:53:58;100867.41;;;17.05;66.95
78383;BME280;67668;52.294;4.692;2023-09-19T07:56:23;100863.16;;;17.11;68.43
78383;BME280;67668;52.294;4.692;2023-09-19T07:58:49;100863.25;;;17.17;69.03
78383;BME280;67668;52.294;4.692;2023-09-19T08:01:15;100859.03;;;17.23;68.92
78383;BME280;67668;52.294;4.692;2023-09-19T08:03:41;100854.31;;;17.25;69.16
78383;BME280;67668;52.294;4.692;2023-09-19T08:06:08;100851.09;;;17.29;69.32
78383;BME280;67668;52.294;4.692;2023-09-19T08:08:34;100852.19;;;17.35;69.55
78383;BME280;67668;52.294;4.692;2023-09-19T08:11:04;100846.09;;;17.41;69.47
78383;BME280;67668;52.294;4.692;2023-09-19T08:13:46;100834.63;;;17.47;69.64
78383;BME280;67668;52.294;4.692;2023-09-19T08:16:15;100847.28;;;17.53;70.20
78383;BME280;67668;52.294;4.692;2023-09-19T08:18:40;100831.34;;;17.60;70.62
78383;BME280;67668;52.294;4.692;2023-09-19T08:21:08;100842.13;;;17.66;70.34
78383;BME280;67668;52.294;4.692;2023-09-19T08:23:37;100843.00;;;17.73;70.13
78383;BME280;67668;52.294;4.692;2023-09-19T08:26:03;100838.56;;;17.80;70.16
78383;BME280;67668;52.294;4.692;2023-09-19T08:28:32;100840.69;;;17.85;69.39
78383;BME280;67668;52.294;4.692;2023-09-19T08:31:04;100838.09;;;17.91;69.59
78383;BME280;67668;52.294;4.692;2023-09-19T08:33:34;100832.81;;;17.98;69.39
78383;BME280;67668;52.294;4.692;2023-09-19T08:36:02;100831.88;;;18.05;69.58
78383;BME280;67668;52.294;4.692;2023-09-19T08:38:31;100844.50;;;18.12;69.38
78383;BME280;67668;52.294;4.692;2023-09-19T08:40:59;100829.50;;;18.17;68.78
78383;BME280;67668;52.294;4.692;2023-09-19T08:43:25;100841.31;;;18.23;68.61
78383;BME280;67668;52.294;4.692;2023-09-19T08:46:11;100837.03;;;18.28;68.05
78383;BME280;67668;52.294;4.692;2023-09-19T08:48:45;100845.97;;;18.35;67.67
78383;BME280;67668;52.294;4.692;2023-09-19T08:51:28;100845.38;;;18.40;67.30
78383;BME280;67668;52.294;4.692;2023-09-19T08:56:31;100850.63;;;18.48;67.12
78383;BME280;67668;52.294;4.692;2023-09-19T08:59:04;100838.53;;;18.52;67.05
78383;BME280;67668;52.294;4.692;2023-09-19T09:01:33;100841.66;;;18.55;67.07
78383;BME280;67668;52.294;4.692;2023-09-19T09:04:01;100840.41;;;18.58;66.70
78383;BME280;67668;52.294;4.692;2023-09-19T09:06:27;100836.34;;;18.62;67.01
78383;BME280;67668;52.294;4.692;2023-09-19T09:08:53;100848.31;;;18.66;66.72
78383;BME280;67668;52.294;4.692;2023-09-19T09:11:19;100839.91;;;18.69;66.67
78383;BME280;67668;52.294;4.692;2023-09-19T09:13:46;100839.50;;;18.72;67.03
78383;BME280;67668;52.294;4.692;2023-09-19T09:16:12;100854.38;;;18.75;67.03
78383;BME280;67668;52.294;4.692;2023-09-19T09:18:39;100852.13;;;18.78;66.14
78383;BME280;67668;52.294;4.692;2023-09-19T09:21:05;100837.50;;;18.81;66.50
78383;BME280;67668;52.294;4.692;2023-09-19T09:23:30;100844.97;;;18.85;66.13
78383;BME280;67668;52.294;4.692;2023-09-19T09:25:58;100836.31;;;18.90;66.18
78383;BME280;67668;52.294;4.692;2023-09-19T09:28:33;100836.38;;;18.96;66.82
78383;BME280;67668;52.294;4.692;2023-09-19T09:31:00;100822.38;;;19.01;66.45
78383;BME280;67668;52.294;4.692;2023-09-19T09:33:36;100819.75;;;19.07;66.50
78383;BME280;67668;52.294;4.692;2023-09-19T09:36:02;100819.34;;;19.10;66.70
78383;BME280;67668;52.294;4.692;2023-09-19T09:38:42;100808.03;;;19.15;66.49
78383;BME280;67668;52.294;4.692;2023-09-19T09:41:08;100822.50;;;19.21;66.27
78383;BME280;67668;52.294;4.692;2023-09-19T09:43:37;100820.03;;;19.26;65.92
78383;BME280;67668;52.294;4.692;2023-09-19T09:49:01;100810.81;;;19.35;65.22
78383;BME280;67668;52.294;4.692;2023-09-19T09:51:49;100812.06;;;19.39;65.50
78383;BME280;67668;52.294;4.692;2023-09-19T09:54:27;100804.44;;;19.42;65.09
78383;BME280;67668;52.294;4.692;2023-09-19T09:57:00;100809.44;;;19.45;64.63
78383;BME280;67668;52.294;4.692;2023-09-19T09:59:52;100800.38;;;19.53;65.28
78383;BME280;67668;52.294;4.692;2023-09-19T10:02:20;100796.25;;;19.57;65.67
78383;BME280;67668;52.294;4.692;2023-09-19T10:04:55;100792.56;;;19.65;65.13
78383;BME280;67668;52.294;4.692;2023-09-19T10:07:39;100793.63;;;19.70;64.23
78383;BME280;67668;52.294;4.692;2023-09-19T10:10:07;100801.06;;;19.75;64.30
78383;BME280;67668;52.294;4.692;2023-09-19T10:12:45;100784.34;;;19.79;64.07
78383;BME280;67668;52.294;4.692;2023-09-19T10:15:13;100772.78;;;19.85;64.52
78383;BME280;67668;52.294;4.692;2023-09-19T10:17:42;100783.56;;;19.92;63.42
78383;BME280;67668;52.294;4.692;2023-09-19T10:20:12;100767.03;;;20.01;63.22
78383;BME280;67668;52.294;4.692;2023-09-19T10:22:49;100778.59;;;20.08;63.93
78383;BME280;67668;52.294;4.692;2023-09-19T10:25:25;100769.53;;;20.16;63.76
78383;BME280;67668;52.294;4.692;2023-09-19T10:27:51;100788.34;;;20.23;63.26
78383;BME280;67668;52.294;4.692;2023-09-19T10:30:20;100769.78;;;20.28;62.63
78383;BME280;67668;52.294;4.692;2023-09-19T10:32:47;100771.81;;;20.32;62.44
78383;BME280;67668;52.294;4.692;2023-09-19T10:35:20;100759.03;;;20.34;62.18
78383;BME280;67668;52.294;4.692;2023-09-19T10:37:47;100768.53;;;20.37;62.52
78383;BME280;67668;52.294;4.692;2023-09-19T10:40:16;100769.97;;;20.39;62.10
78383;BME280;67668;52.294;4.692;2023-09-19T10:42:44;100761.72;;;20.41;61.73
78383;BME280;67668;52.294;4.692;2023-09-19T10:45:12;100765.66;;;20.45;62.62
78383;BME280;67668;52.294;4.692;2023-09-19T10:47:40;100779.28;;;20.50;62.33
78383;BME280;67668;52.294;4.692;2023-09-19T10:50:07;100767.50;;;20.51;61.28
78383;BME280;67668;52.294;4.692;2023-09-19T10:52:39;100764.16;;;20.55;62.10
78383;BME280;67668;52.294;4.692;2023-09-19T10:55:07;100763.97;;;20.57;61.20
78383;BME280;67668;52.294;4.692;2023-09-19T10:57:34;100762.72;;;20.59;61.59
78383;BME280;67668;52.294;4.692;2023-09-19T11:00:09;100743.06;;;20.59;61.30
78383;BME280;67668;52.294;4.692;2023-09-19T11:03:23;100753.41;;;20.62;61.28
78383;BME280;67668;52.294;4.692;2023-09-19T11:06:15;100743.28;;;20.64;61.58
78383;BME280;67668;52.294;4.692;2023-09-19T11:17:29;100730.41;;;20.73;61.03
78383;BME280;67668;52.294;4.692;2023-09-19T11:30:37;100728.75;;;20.78;61.01
78383;BME280;67668;52.294;4.692;2023-09-19T11:33:19;100742.81;;;20.80;61.18
78383;BME280;67668;52.294;4.692;2023-09-19T11:43:46;100740.75;;;20.82;61.37
78383;BME280;67668;52.294;4.692;2023-09-19T11:46:12;100746.94;;;20.83;61.48
78383;BME280;67668;52.294;4.692;2023-09-19T11:48:42;100747.78;;;20.83;61.52
78383;BME280;67668;52.294;4.692;2023-09-19T11:51:17;100750.06;;;20.80;62.54
78383;BME280;67668;52.294;4.692;2023-09-19T11:53:58;100739.09;;;20.81;62.49
78383;BME280;67668;52.294;4.692;2023-09-19T11:56:25;100750.91;;;20.80;62.61
78383;BME280;67668;52.294;4.692;2023-09-19T11:58:55;100768.69;;;20.81;62.92
78383;BME280;67668;52.294;4.692;2023-09-19T12:01:29;100754.00;;;20.77;63.07
78383;BME280;67668;52.294;4.692;2023-09-19T12:03:56;100752.34;;;20.76;63.22
78383;BME280;67668;52.294;4.692;2023-09-19T12:06:24;100736.00;;;20.78;63.29
78383;BME280;67668;52.294;4.692;2023-09-19T12:08:49;100742.00;;;20.73;63.07
78383;BME280;67668;52.294;4.692;2023-09-19T12:11:16;100751.53;;;20.69;63.64
78383;BME280;67668;52.294;4.692;2023-09-19T12:13:47;100754.03;;;20.64;64.55
78383;BME280;67668;52.294;4.692;2023-09-19T12:18:40;100762.72;;;20.66;66.05
78383;BME280;67668;52.294;4.692;2023-09-19T12:21:08;100762.09;;;20.64;65.73
78383;BME280;67668;52.294;4.692;2023-09-19T12:23:57;100758.78;;;20.62;66.25
78383;BME280;67668;52.294;4.692;2023-09-19T12:26:22;100746.81;;;20.58;66.20
78383;BME280;67668;52.294;4.692;2023-09-19T12:28:49;100753.00;;;20.58;66.20
78383;BME280;67668;52.294;4.692;2023-09-19T12:31:17;100747.19;;;20.55;66.43
78383;BME280;67668;52.294;4.692;2023-09-19T12:33:44;100742.25;;;20.52;66.46
78383;BME280;67668;52.294;4.692;2023-09-19T12:36:23;100718.03;;;20.52;66.71
78383;BME280;67668;52.294;4.692;2023-09-19T12:38:55;100746.81;;;20.51;66.68
78383;BME280;67668;52.294;4.692;2023-09-19T12:41:21;100720.72;;;20.52;66.65
78383;BME280;67668;52.294;4.692;2023-09-19T12:43:47;100725.31;;;20.51;66.26
78383;BME280;67668;52.294;4.692;2023-09-19T12:46:13;100724.06;;;20.54;66.00
78383;BME280;67668;52.294;4.692;2023-09-19T12:48:40;100713.28;;;20.54;65.63
78383;BME280;67668;52.294;4.692;2023-09-19T12:51:13;100716.59;;;20.56;65.38
78383;BME280;67668;52.294;4.692;2023-09-19T12:53:40;100724.47;;;20.57;64.90
78383;BME280;67668;52.294;4.692;2023-09-19T12:56:08;100716.16;;;20.59;64.65
78383;BME280;67668;52.294;4.692;2023-09-19T12:58:54;100710.78;;;20.59;64.19
78383;BME280;67668;52.294;4.692;2023-09-19T13:01:20;100720.94;;;20.57;63.73
78383;BME280;67668;52.294;4.692;2023-09-19T13:06:37;100717.22;;;20.58;63.93
78383;BME280;67668;52.294;4.692;2023-09-19T13:09:09;100716.59;;;20.56;63.19
78383;BME280;67668;52.294;4.692;2023-09-19T13:11:38;100704.00;;;20.50;62.48
78383;BME280;67668;52.294;4.692;2023-09-19T13:16:54;100741.81;;;20.48;62.44
78383;BME280;67668;52.294;4.692;2023-09-19T13:19:41;100724.91;;;20.48;63.28
78383;BME280;67668;52.294;4.692;2023-09-19T13:22:44;100726.53;;;20.49;63.94
78383;BME280;67668;52.294;4.692;2023-09-19T13:25:21;100720.13;;;20.50;63.56
78383;BME280;67668;52.294;4.692;2023-09-19T13:27:47;100731.47;;;20.52;63.72
78383;BME280;67668;52.294;4.692;2023-09-19T13:30:18;100738.94;;;20.50;63.66
78383;BME280;67668;52.294;4.692;2023-09-19T13:32:44;100733.56;;;20.50;64.08
78383;BME280;67668;52.294;4.692;2023-09-19T13:35:11;100719.50;;;20.48;63.30
78383;BME280;67668;52.294;4.692;2023-09-19T13:37:41;100717.84;;;20.47;63.90
78383;BME280;67668;52.294;4.692;2023-09-19T13:40:11;100718.69;;;20.47;63.65
78383;BME280;67668;52.294;4.692;2023-09-19T13:42:37;100714.34;;;20.46;63.97
78383;BME280;67668;52.294;4.692;2023-09-19T13:45:03;100714.94;;;20.48;64.08
78383;BME280;67668;52.294;4.692;2023-09-19T13:47:33;100736.25;;;20.50;64.30
78383;BME280;67668;52.294;4.692;2023-09-19T13:50:02;100741.63;;;20.50;65.28
78383;BME280;67668;52.294;4.692;2023-09-19T13:52:30;100743.91;;;20.46;65.89